Time,TemperatureF,DewpointF,PressureIn,WindDirection,WindDirectionDegrees,WindSpeedMPH,WindSpeedGustMPH,Humidity,HourlyPrecipIn,Conditions,Clouds,dailyrainin,SolarRadiationWatts/m^2,SoftwareType,DateUTC
2013-03-05 00:04:00,33.3,24.0,29.79,South,190,9.0,11.0,68,0.00,,,0.00,0,weatherlink.com 1.10,2013-03-05 05:04:00,
2013-03-05 00:18:00,33.2,24.0,29.79,West,266,5.0,11.0,69,0.00,,,0.00,0,weatherlink.com 1.10,2013-03-05 05:18:00,
2013-03-05 00:33:00,33.1,24.0,29.80,WSW,241,5.0,10.0,69,0.00,,,0.00,0,weatherlink.com 1.10,2013-03-05 05:33:00,
2013-03-05 00:48:00,32.9,24.0,29.81,SW,229,2.0,9.0,69,0.00,,,0.00,0,weatherlink.com 1.10,2013-03-05 05:48:00,
2013-03-05 01:03:00,32.7,24.0,29.81,West,272,4.0,8.0,69,0.00,,,0.00,0,weatherlink.com 1.10,2013-03-05 06:03:00,
2013-03-05 01:18:00,32.5,23.0,29.82,WSW,255,2.0,7.0,69,0.00,,,0.00,0,weatherlink.com 1.10,2013-03-05 06:18:00,
2013-03-05 01:33:00,32.4,23.0,29.82,WSW,246,3.0,5.0,69,0.00,,,0.00,0,weatherlink.com 1.10,2013-03-05 06:33:00,
2013-03-05 01:48:00,32.2,23.0,29.82,SW,216,5.0,11.0,69,0.00,,,0.00,0,weatherlink.com 1.10,2013-03-05 06:48:00,
2013-03-05 02:04:00,32.2,23.0,29.82,West,272,3.0,7.0,69,0.00,,,0.00,0,weatherlink.com 1.10,2013-03-05 07:04:00,
2013-03-05 02:19:00,32.1,23.0,29.83,WNW,285,2.0,9.0,69,0.00,,,0.00,0,weatherlink.com 1.10,2013-03-05 07:19:00,
2013-03-05 02:34:00,32.0,23.0,29.83,SW,215,8.0,8.0,69,0.00,,,0.00,0,weatherlink.com 1.10,2013-03-05 07:34:00,
2013-03-05 02:49:00,31.9,23.0,29.84,SW,229,2.0,8.0,69,0.00,,,0.00,0,weatherlink.com 1.10,2013-03-05 07:49:00,
2013-03-05 03:04:00,31.9,23.0,29.84,WSW,240,3.0,9.0,69,0.00,,,0.00,0,weatherlink.com 1.10,2013-03-05 08:04:00,
2013-03-05 03:19:00,31.9,23.0,29.84,SW,231,5.0,9.0,69,0.00,,,0.00,0,weatherlink.com 1.10,2013-03-05 08:19:00,
2013-03-05 03:34:00,31.8,23.0,29.85,SW,217,3.0,4.0,69,0.00,,,0.00,0,weatherlink.com 1.10,2013-03-05 08:34:00,
2013-03-05 03:49:00,32.0,23.0,29.85,WSW,258,4.0,11.0,70,0.00,,,0.00,0,weatherlink.com 1.10,2013-03-05 08:49:00,
2013-03-05 04:04:00,32.0,23.0,29.85,SW,225,6.0,12.0,70,0.00,,,0.00,0,weatherlink.com 1.10,2013-03-05 09:04:00,
2013-03-05 04:19:00,32.2,23.0,29.86,WSW,253,5.0,12.0,70,0.00,,,0.00,0,weatherlink.com 1.10,2013-03-05 09:19:00,
2013-03-05 04:34:00,32.1,23.0,29.87,WSW,254,3.0,13.0,70,0.00,,,0.00,0,weatherlink.com 1.10,2013-03-05 09:34:00,
2013-03-05 04:49:00,32.2,23.0,29.88,WNW,283,7.0,10.0,70,0.00,,,0.00,0,weatherlink.com 1.10,2013-03-05 09:49:00,
2013-03-05 05:04:00,32.2,23.0,29.88,West,262,2.0,12.0,70,0.00,,,0.00,0,weatherlink.com 1.10,2013-03-05 10:04:00,
2013-03-05 05:19:00,32.3,24.0,29.88,West,269,4.0,10.0,70,0.00,,,0.00,0,weatherlink.com 1.10,2013-03-05 10:19:00,
2013-03-05 05:34:00,32.3,24.0,29.89,WSW,252,3.0,9.0,71,0.00,,,0.00,0,weatherlink.com 1.10,2013-03-05 10:34:00,
2013-03-05 05:49:00,32.4,24.0,29.89,WSW,252,0.0,10.0,71,0.00,,,0.00,0,weatherlink.com 1.10,2013-03-05 10:49:00,
2013-03-05 06:05:00,32.2,23.0,29.90,WSW,257,2.0,12.0,70,0.00,,,0.00,0,weatherlink.com 1.10,2013-03-05 11:05:00,
2013-03-05 06:20:00,32.3,24.0,29.90,WSW,252,2.0,8.0,71,0.00,,,0.00,5,weatherlink.com 1.10,2013-03-05 11:20:00,
2013-03-05 06:35:00,32.3,24.0,29.91,WSW,240,0.0,5.0,71,0.00,,,0.00,14,weatherlink.com 1.10,2013-03-05 11:35:00,
2013-03-05 06:50:00,32.4,24.0,29.92,WNW,288,2.0,6.0,71,0.00,,,0.00,25,weatherlink.com 1.10,2013-03-05 11:50:00,
2013-03-05 07:05:00,33.0,25.0,29.92,West,263,4.0,8.0,71,0.00,,,0.00,32,weatherlink.com 1.10,2013-03-05 12:05:00,
2013-03-05 07:20:00,33.5,25.0,29.92,West,269,3.0,9.0,70,0.00,,,0.00,53,weatherlink.com 1.10,2013-03-05 12:20:00,
2013-03-05 07:35:00,34.5,25.0,29.92,NW,304,3.0,14.0,68,0.00,,,0.00,33,weatherlink.com 1.10,2013-03-05 12:35:00,
2013-03-05 07:51:00,35.2,25.0,29.93,West,275,5.0,17.0,66,0.00,,,0.00,42,weatherlink.com 1.10,2013-03-05 12:51:00,
2013-03-05 08:06:00,35.9,25.0,29.93,WNW,284,14.0,19.0,65,0.00,,,0.00,40,weatherlink.com 1.10,2013-03-05 13:06:00,
2013-03-05 08:21:00,36.6,25.0,29.93,West,265,7.0,15.0,64,0.00,,,0.00,40,weatherlink.com 1.10,2013-03-05 13:21:00,
2013-03-05 08:36:00,37.2,26.0,29.93,WSW,255,9.0,19.0,63,0.00,,,0.00,42,weatherlink.com 1.10,2013-03-05 13:36:00,
2013-03-05 08:51:00,37.8,26.0,29.94,West,259,7.0,19.0,62,0.00,,,0.00,44,weatherlink.com 1.10,2013-03-05 13:51:00,
2013-03-05 09:07:00,38.5,26.0,29.94,West,281,6.0,18.0,61,0.00,,,0.00,81,weatherlink.com 1.10,2013-03-05 14:07:00,
2013-03-05 09:22:00,38.7,26.0,29.95,West,271,8.0,16.0,60,0.00,,,0.00,105,weatherlink.com 1.10,2013-03-05 14:22:00,
2013-03-05 09:37:00,39.2,27.0,29.95,WNW,300,8.0,17.0,61,0.00,,,0.00,246,weatherlink.com 1.10,2013-03-05 14:37:00,
2013-03-05 09:52:00,38.9,26.0,29.95,WNW,293,9.0,16.0,60,0.00,,,0.00,311,weatherlink.com 1.10,2013-03-05 14:52:00,
2013-03-05 10:07:00,39.2,26.0,29.95,West,260,3.0,15.0,60,0.00,,,0.00,413,weatherlink.com 1.10,2013-03-05 15:07:00,
2013-03-05 10:22:00,39.8,27.0,29.95,WNW,287,12.0,15.0,60,0.00,,,0.00,645,weatherlink.com 1.10,2013-03-05 15:22:00,
2013-03-05 10:37:00,40.3,26.0,29.95,WSW,255,5.0,17.0,58,0.00,,,0.00,666,weatherlink.com 1.10,2013-03-05 15:37:00,
2013-03-05 10:53:00,41.2,27.0,29.94,West,266,6.0,14.0,58,0.00,,,0.00,686,weatherlink.com 1.10,2013-03-05 15:53:00,
2013-03-05 11:08:00,41.9,27.0,29.94,West,276,13.0,15.0,57,0.00,,,0.00,701,weatherlink.com 1.10,2013-03-05 16:08:00,
2013-03-05 11:23:00,42.9,28.0,29.94,West,281,10.0,14.0,57,0.00,,,0.00,712,weatherlink.com 1.10,2013-03-05 16:23:00,
2013-03-05 11:38:00,42.9,28.0,29.94,NW,315,6.0,16.0,57,0.00,,,0.00,721,weatherlink.com 1.10,2013-03-05 16:38:00,
2013-03-05 11:55:00,43.6,29.0,29.94,West,279,7.0,17.0,56,0.00,,,0.00,726,weatherlink.com 1.10,2013-03-05 16:55:00,
2013-03-05 12:09:00,44.0,29.0,29.94,WNW,290,5.0,14.0,55,0.00,,,0.00,724,weatherlink.com 1.10,2013-03-05 17:09:00,
2013-03-05 12:23:00,44.3,29.0,29.93,WNW,295,5.0,15.0,56,0.00,,,0.00,722,weatherlink.com 1.10,2013-03-05 17:23:00,
2013-03-05 12:39:00,44.7,29.0,29.93,WNW,291,7.0,13.0,54,0.00,,,0.00,712,weatherlink.com 1.10,2013-03-05 17:39:00,
2013-03-05 12:55:00,44.8,29.0,29.93,West,259,6.0,16.0,54,0.00,,,0.00,707,weatherlink.com 1.10,2013-03-05 17:55:00,
2013-03-05 13:09:00,45.5,30.0,29.92,West,267,5.0,13.0,54,0.00,,,0.00,689,weatherlink.com 1.10,2013-03-05 18:09:00,
2013-03-05 13:25:00,46.2,30.0,29.93,NW,311,5.0,13.0,54,0.00,,,0.00,664,weatherlink.com 1.10,2013-03-05 18:25:00,
2013-03-05 13:39:00,47.5,30.0,29.93,West,261,0.0,13.0,51,0.00,,,0.00,686,weatherlink.com 1.10,2013-03-05 18:39:00,
2013-03-05 13:55:00,46.8,30.0,29.93,NW,311,9.0,12.0,53,0.00,,,0.00,77,weatherlink.com 1.10,2013-03-05 18:55:00,
2013-03-05 14:10:00,47.3,30.0,29.94,NNW,340,9.0,12.0,52,0.00,,,0.00,125,weatherlink.com 1.10,2013-03-05 19:10:00,
2013-03-05 14:25:00,47.8,30.0,29.94,NW,317,9.0,13.0,51,0.00,,,0.00,192,weatherlink.com 1.10,2013-03-05 19:25:00,
2013-03-05 14:40:00,48.1,31.0,29.95,NW,315,5.0,11.0,52,0.00,,,0.00,271,weatherlink.com 1.10,2013-03-05 19:40:00,
2013-03-05 14:55:00,47.6,30.0,29.95,NNW,334,4.0,9.0,51,0.00,,,0.00,158,weatherlink.com 1.10,2013-03-05 19:55:00,
2013-03-05 15:10:00,47.4,29.0,29.96,NNW,346,3.0,12.0,50,0.00,,,0.00,125,weatherlink.com 1.10,2013-03-05 20:10:00,
2013-03-05 15:25:00,47.2,29.0,29.96,WNW,282,2.0,12.0,50,0.00,,,0.00,125,weatherlink.com 1.10,2013-03-05 20:25:00,
2013-03-05 15:40:00,47.3,29.0,29.97,WNW,295,2.0,10.0,50,0.00,,,0.00,77,weatherlink.com 1.10,2013-03-05 20:40:00,
2013-03-05 15:56:00,47.3,29.0,29.97,WNW,287,3.0,8.0,50,0.00,,,0.00,76,weatherlink.com 1.10,2013-03-05 20:56:00,
2013-03-05 16:11:00,47.1,30.0,29.97,West,277,0.0,7.0,51,0.00,,,0.00,53,weatherlink.com 1.10,2013-03-05 21:11:00,
2013-03-05 16:26:00,47.1,30.0,29.98,WNW,294,0.0,7.0,51,0.00,,,0.00,37,weatherlink.com 1.10,2013-03-05 21:26:00,
2013-03-05 16:42:00,47.0,30.0,29.98,NNW,329,1.0,6.0,52,0.00,,,0.00,28,weatherlink.com 1.10,2013-03-05 21:42:00,
2013-03-05 16:56:00,46.9,30.0,29.98,NW,316,1.0,3.0,52,0.00,,,0.00,23,weatherlink.com 1.10,2013-03-05 21:56:00,
2013-03-05 17:11:00,46.8,30.0,29.98,NW,304,0.0,4.0,53,0.00,,,0.00,14,weatherlink.com 1.10,2013-03-05 22:11:00,
2013-03-05 17:26:00,46.8,30.0,29.98,WNW,298,0.0,4.0,53,0.00,,,0.00,5,weatherlink.com 1.10,2013-03-05 22:26:00,
2013-03-05 17:42:00,46.6,30.0,29.98,WNW,298,0.0,1.0,53,0.00,,,0.00,0,weatherlink.com 1.10,2013-03-05 22:42:00,
2013-03-05 17:57:00,46.1,31.0,29.99,NW,308,0.0,2.0,57,0.00,,,0.00,0,weatherlink.com 1.10,2013-03-05 22:57:00,
2013-03-05 18:12:00,45.2,33.0,29.99,North,10,0.0,2.0,63,0.00,,,0.00,0,weatherlink.com 1.10,2013-03-05 23:12:00,
2013-03-05 18:27:00,44.9,33.0,30.00,ENE,71,3.0,4.0,64,0.00,,,0.00,0,weatherlink.com 1.10,2013-03-05 23:27:00,
2013-03-05 18:43:00,44.0,33.0,30.01,ENE,75,0.0,4.0,66,0.00,,,0.00,0,weatherlink.com 1.10,2013-03-05 23:43:00,
2013-03-05 18:58:00,43.3,34.0,30.02,East,81,0.0,6.0,70,0.00,,,0.00,0,weatherlink.com 1.10,2013-03-05 23:58:00,
2013-03-05 19:12:00,43.0,34.0,30.02,East,81,0.0,1.0,71,0.00,,,0.00,0,weatherlink.com 1.10,2013-03-06 00:12:00,
2013-03-05 19:27:00,42.8,34.0,30.02,East,81,0.0,0.0,72,0.00,,,0.00,0,weatherlink.com 1.10,2013-03-06 00:27:00,
2013-03-05 19:43:00,42.7,35.0,30.02,ENE,74,0.0,1.0,73,0.00,,,0.00,0,weatherlink.com 1.10,2013-03-06 00:43:00,
2013-03-05 19:58:00,42.3,35.0,30.02,ENE,74,0.0,1.0,74,0.00,,,0.00,0,weatherlink.com 1.10,2013-03-06 00:58:00,
2013-03-05 20:12:00,41.6,34.0,30.02,ENE,74,0.0,0.0,75,0.00,,,0.00,0,weatherlink.com 1.10,2013-03-06 01:12:00,
2013-03-05 20:28:00,40.3,34.0,30.02,ENE,74,0.0,0.0,78,0.00,,,0.00,0,weatherlink.com 1.10,2013-03-06 01:28:00,
2013-03-05 20:43:00,39.2,33.0,30.03,ENE,74,0.0,0.0,79,0.00,,,0.00,0,weatherlink.com 1.10,2013-03-06 01:43:00,
2013-03-05 20:58:00,38.7,33.0,30.03,ENE,74,0.0,0.0,80,0.00,,,0.00,0,weatherlink.com 1.10,2013-03-06 01:58:00,
2013-03-05 21:15:00,38.0,33.0,30.03,ENE,74,0.0,0.0,81,0.00,,,0.00,0,weatherlink.com 1.10,2013-03-06 02:15:00,
2013-03-05 21:29:00,38.2,33.0,30.03,ENE,74,0.0,0.0,81,0.00,,,0.00,0,weatherlink.com 1.10,2013-03-06 02:29:00,
2013-03-05 21:45:00,38.2,33.0,30.04,ENE,74,0.0,1.0,81,0.00,,,0.00,0,weatherlink.com 1.10,2013-03-06 02:45:00,
2013-03-05 21:59:00,38.1,32.0,30.04,ENE,74,0.0,1.0,80,0.00,,,0.00,0,weatherlink.com 1.10,2013-03-06 02:59:00,
2013-03-05 22:14:00,38.2,33.0,30.03,ENE,74,0.0,0.0,82,0.00,,,0.00,0,weatherlink.com 1.10,2013-03-06 03:14:00,
2013-03-05 22:29:00,37.9,33.0,30.03,ENE,74,0.0,0.0,82,0.00,,,0.00,0,weatherlink.com 1.10,2013-03-06 03:29:00,
2013-03-05 22:45:00,36.9,32.0,30.03,ENE,74,0.0,0.0,82,0.00,,,0.00,0,weatherlink.com 1.10,2013-03-06 03:45:00,
2013-03-05 22:59:00,36.9,32.0,30.02,ENE,74,0.0,0.0,83,0.00,,,0.00,0,weatherlink.com 1.10,2013-03-06 03:59:00,
2013-03-05 23:15:00,36.3,32.0,30.02,ENE,74,0.0,0.0,83,0.00,,,0.00,0,weatherlink.com 1.10,2013-03-06 04:15:00,
2013-03-05 23:29:00,36.3,32.0,30.02,ENE,74,0.0,0.0,84,0.00,,,0.00,0,weatherlink.com 1.10,2013-03-06 04:29:00,
2013-03-05 23:45:00,36.5,32.0,30.02,ENE,74,0.0,0.0,84,0.00,,,0.00,0,weatherlink.com 1.10,2013-03-06 04:45:00,